createdAt,value
2018-12-26T00:00:13.856Z,17.10
2018-12-26T00:01:13.766Z,17.20
2018-12-26T00:02:13.711Z,18.40
2018-12-26T00:03:13.691Z,17.30
2018-12-26T00:04:13.658Z,17.20
2018-12-26T00:05:13.648Z,17.50
2018-12-26T00:06:13.607Z,16.90
2018-12-26T00:07:13.577Z,17.80
2018-12-26T00:08:13.726Z,16.90
2018-12-26T00:09:13.539Z,17.70
2018-12-26T00:10:13.513Z,17.60
2018-12-26T00:11:13.473Z,17.20
2018-12-26T00:12:13.445Z,17.80
2018-12-26T00:13:13.419Z,17.60
2018-12-26T00:14:13.411Z,17.10
2018-12-26T00:15:13.368Z,17.20
2018-12-26T00:16:13.339Z,17.50
2018-12-26T00:17:13.318Z,16.80
2018-12-26T00:18:13.308Z,16.80
2018-12-26T00:19:13.259Z,17.30
2018-12-26T00:20:13.235Z,17.20
2018-12-26T00:21:13.207Z,17.60
2018-12-26T00:22:13.183Z,17.80
2018-12-26T00:23:13.170Z,16.40
2018-12-26T00:24:13.146Z,15.90
2018-12-26T00:25:13.224Z,17.90
2018-12-26T00:26:13.076Z,16.30
2018-12-26T00:27:13.048Z,17.50
2018-12-26T00:28:13.031Z,16.90
2018-12-26T00:29:13.001Z,16.70
2018-12-26T00:30:12.981Z,17.70
2018-12-26T00:31:12.944Z,16.80
2018-12-26T00:32:12.916Z,16.60
2018-12-26T00:33:12.900Z,17.20
2018-12-26T00:34:12.866Z,17.00
2018-12-26T00:35:12.836Z,16.70
2018-12-26T00:36:12.820Z,17.30
2018-12-26T00:37:12.790Z,17.50
2018-12-26T00:38:12.762Z,17.00
2018-12-26T00:39:12.732Z,16.90
2018-12-26T00:40:12.714Z,17.40
2018-12-26T00:41:12.680Z,17.00
2018-12-26T00:42:12.655Z,16.60
2018-12-26T00:43:12.630Z,17.60
2018-12-26T00:44:12.601Z,16.70
2018-12-26T00:45:12.576Z,16.90
2018-12-26T00:46:12.550Z,16.60
2018-12-26T00:47:12.523Z,16.80
2018-12-26T00:48:12.497Z,16.80
2018-12-26T00:49:12.471Z,17.20
2018-12-26T00:50:12.447Z,16.00
2018-12-26T00:51:12.420Z,17.10
2018-12-26T00:52:12.393Z,17.30
2018-12-26T00:53:12.368Z,17.60
2018-12-26T00:54:12.340Z,16.80
2018-12-26T00:55:12.339Z,16.30
2018-12-26T00:56:12.287Z,16.80
2018-12-26T00:57:12.262Z,17.30
2018-12-26T00:58:12.246Z,16.90
2018-12-26T00:59:12.209Z,17.60
2018-12-26T01:00:12.182Z,17.50
2018-12-26T01:01:12.164Z,17.80
2018-12-26T01:02:12.139Z,17.20
2018-12-26T01:03:12.105Z,18.40
2018-12-26T01:04:12.077Z,17.30
2018-12-26T01:05:12.067Z,17.50
2018-12-26T01:06:12.027Z,17.50
2018-12-26T01:07:12.001Z,17.50
2018-12-26T01:08:11.973Z,18.30
2018-12-26T01:09:11.958Z,18.20
2018-12-26T01:10:11.924Z,18.30
2018-12-26T01:11:11.895Z,17.30
2018-12-26T01:12:11.869Z,18.50
2018-12-26T01:13:11.849Z,19.10
2018-12-26T01:14:11.823Z,17.70
2018-12-26T01:15:11.789Z,18.20
2018-12-26T01:16:11.768Z,17.90
2018-12-26T01:17:11.741Z,18.80
2018-12-26T01:18:11.722Z,18.80
2018-12-26T01:19:11.697Z,18.70
2018-12-26T01:20:11.671Z,18.50
2018-12-26T01:21:11.636Z,19.70
2018-12-26T01:22:11.610Z,19.30
2018-12-26T01:23:11.590Z,18.70
2018-12-26T01:24:11.557Z,19.10
2018-12-26T01:25:11.540Z,18.30
2018-12-26T01:26:18.971Z,18.80
2018-12-26T01:27:11.479Z,18.90
2018-12-26T01:28:11.452Z,19.50
2018-12-26T01:29:11.427Z,19.20
2018-12-26T01:30:11.410Z,19.80
2018-12-26T01:31:11.374Z,19.70
2018-12-26T01:32:11.348Z,19.10
2018-12-26T01:33:11.331Z,18.70
2018-12-26T01:34:11.297Z,19.70
2018-12-26T01:35:11.270Z,19.30
2018-12-26T01:36:11.254Z,19.80
2018-12-26T01:37:11.219Z,20.20
2018-12-26T01:38:11.197Z,19.90
2018-12-26T01:39:11.176Z,20.20
2018-12-26T01:40:11.142Z,19.60
2018-12-26T01:41:11.115Z,20.20
2018-12-26T01:42:11.089Z,19.00
2018-12-26T01:43:11.068Z,19.70
2018-12-26T01:44:11.039Z,20.40
2018-12-26T01:45:11.012Z,19.60
2018-12-26T01:46:10.987Z,19.00
2018-12-26T01:47:10.967Z,19.90
2018-12-26T01:48:10.932Z,19.30
2018-12-26T01:49:10.909Z,19.50
2018-12-26T01:50:10.886Z,20.00
2018-12-26T01:51:10.856Z,20.10
2018-12-26T01:52:10.840Z,20.10
2018-12-26T01:53:10.814Z,20.20
2018-12-26T01:54:10.779Z,19.80
2018-12-26T01:55:10.754Z,19.00
2018-12-26T01:56:10.728Z,19.30
2018-12-26T01:57:10.704Z,19.60
2018-12-26T01:58:10.683Z,20.30
2018-12-26T01:59:10.653Z,19.20
2018-12-26T02:00:10.623Z,20.30
2018-12-26T02:01:10.599Z,20.30
2018-12-26T02:02:10.575Z,20.20
2018-12-26T02:03:10.547Z,20.70
2018-12-26T02:04:10.522Z,20.80
2018-12-26T02:05:10.504Z,20.40
2018-12-26T02:06:10.579Z,20.20
2018-12-26T02:07:10.443Z,20.80
2018-12-26T02:08:10.620Z,20.50
2018-12-26T02:09:10.399Z,21.50
2018-12-26T02:10:10.367Z,21.40
2018-12-26T02:11:10.340Z,20.30
2018-12-26T02:12:10.321Z,20.50
2018-12-26T02:13:10.287Z,20.90
2018-12-26T02:14:10.261Z,20.90
2018-12-26T02:15:10.236Z,20.80
2018-12-26T02:16:10.211Z,21.20
2018-12-26T02:17:10.237Z,20.90
2018-12-26T02:18:10.158Z,20.80
2018-12-26T02:19:10.132Z,20.80
2018-12-26T02:20:10.106Z,20.50
2018-12-26T02:21:10.088Z,20.90
2018-12-26T02:22:10.055Z,21.30
2018-12-26T02:23:10.028Z,21.70
2018-12-26T02:24:10.011Z,21.30
2018-12-26T02:25:09.975Z,21.00
2018-12-26T02:26:09.950Z,21.10
2018-12-26T02:27:09.924Z,21.50
2018-12-26T02:28:09.898Z,20.70
2018-12-26T02:29:09.880Z,21.00
2018-12-26T02:30:09.846Z,21.10
2018-12-26T02:31:09.826Z,21.70
2018-12-26T02:32:09.795Z,21.90
2018-12-26T02:33:09.767Z,21.00
2018-12-26T02:34:09.747Z,21.20
2018-12-26T02:35:09.732Z,21.30
2018-12-26T02:36:09.690Z,21.30
2018-12-26T02:37:09.673Z,22.10
2018-12-26T02:38:09.641Z,21.50
2018-12-26T02:39:09.613Z,21.50
2018-12-26T02:40:09.588Z,21.90
2018-12-26T02:41:09.562Z,21.90
2018-12-26T02:42:09.536Z,21.20
2018-12-26T02:43:09.509Z,22.60
2018-12-26T02:44:09.497Z,22.00
2018-12-26T02:45:09.469Z,21.90
2018-12-26T02:46:09.430Z,22.10
2018-12-26T02:47:09.404Z,21.00
2018-12-26T02:48:09.381Z,21.60
2018-12-26T02:49:09.352Z,22.40
2018-12-26T02:50:09.330Z,22.50
2018-12-26T02:51:09.300Z,22.70
2018-12-26T02:52:09.275Z,22.50
2018-12-26T02:53:09.251Z,22.30
2018-12-26T02:54:09.222Z,21.90
2018-12-26T02:55:09.218Z,22.00
2018-12-26T02:56:09.170Z,22.10
2018-12-26T02:57:09.144Z,22.40
2018-12-26T02:58:09.119Z,22.50
2018-12-26T02:59:09.093Z,22.30
2018-12-26T03:00:09.064Z,23.30
2018-12-26T03:01:09.052Z,22.60
2018-12-26T03:02:09.063Z,22.70
2018-12-26T03:03:08.986Z,23.60
2018-12-26T03:04:08.960Z,22.40
2018-12-26T03:05:08.938Z,22.80
2018-12-26T03:06:08.907Z,22.70
2018-12-26T03:07:08.881Z,23.90
2018-12-26T03:08:08.856Z,23.10
2018-12-26T03:09:08.837Z,23.00
2018-12-26T03:10:08.805Z,23.70
2018-12-26T03:11:08.776Z,23.40
2018-12-26T03:12:08.750Z,23.20
2018-12-26T03:13:08.723Z,22.20
2018-12-26T03:14:08.697Z,22.90
2018-12-26T03:15:08.671Z,23.10
2018-12-26T03:16:08.645Z,23.50
2018-12-26T03:17:08.623Z,23.10
2018-12-26T03:18:08.592Z,23.30
2018-12-26T03:19:08.569Z,22.30
2018-12-26T03:20:08.539Z,24.20
2018-12-26T03:21:08.575Z,23.40
2018-12-26T03:22:08.502Z,23.80
2018-12-26T03:23:08.461Z,22.80
2018-12-26T03:24:08.438Z,22.70
2018-12-26T03:25:08.410Z,22.60
2018-12-26T03:26:08.383Z,23.20
2018-12-26T03:27:08.405Z,23.10
2018-12-26T03:28:08.344Z,23.60
2018-12-26T03:29:08.307Z,24.00
2018-12-26T03:30:08.279Z,22.40
2018-12-26T03:31:08.255Z,23.40
2018-12-26T03:32:08.227Z,23.90
2018-12-26T03:33:08.205Z,23.60
2018-12-26T03:34:08.182Z,22.90
2018-12-26T03:35:08.146Z,23.10
2018-12-26T03:36:08.121Z,23.80
2018-12-26T03:37:08.094Z,23.60
2018-12-26T03:38:08.073Z,24.20
2018-12-26T03:39:08.043Z,23.20
2018-12-26T03:40:08.019Z,23.70
2018-12-26T03:41:07.994Z,24.50
2018-12-26T03:42:07.965Z,24.30
2018-12-26T03:43:07.939Z,23.40
2018-12-26T03:44:07.911Z,23.90
2018-12-26T03:45:07.890Z,23.60
2018-12-26T03:46:07.860Z,25.30
2018-12-26T03:47:07.832Z,23.20
2018-12-26T03:48:07.812Z,24.30
2018-12-26T03:49:07.781Z,24.50
2018-12-26T03:50:07.761Z,24.30
2018-12-26T03:51:07.735Z,24.90
2018-12-26T03:52:07.702Z,24.10
2018-12-26T03:53:07.676Z,24.80
2018-12-26T03:54:07.655Z,23.90
2018-12-26T03:55:07.624Z,24.90
2018-12-26T03:56:07.597Z,23.90
2018-12-26T03:57:07.570Z,24.00
2018-12-26T03:58:07.545Z,24.90
2018-12-26T03:59:07.520Z,24.80
2018-12-26T04:00:07.500Z,24.40
2018-12-26T04:01:07.466Z,23.90
2018-12-26T04:02:07.463Z,24.60
2018-12-26T04:03:07.422Z,23.90
2018-12-26T04:04:07.386Z,24.50
2018-12-26T04:05:07.373Z,24.70
2018-12-26T04:06:07.336Z,24.20
2018-12-26T04:07:07.310Z,25.20
2018-12-26T04:08:07.281Z,24.80
2018-12-26T04:09:07.257Z,24.90
2018-12-26T04:10:07.231Z,25.70
2018-12-26T04:11:07.204Z,23.70
2018-12-26T04:12:07.175Z,24.50
2018-12-26T04:13:07.150Z,24.40
2018-12-26T04:14:07.126Z,24.40
2018-12-26T04:15:07.098Z,25.20
2018-12-26T04:16:07.077Z,25.30
2018-12-26T04:17:07.046Z,24.50
2018-12-26T04:18:07.022Z,25.30
2018-12-26T04:19:06.993Z,24.60
2018-12-26T04:20:06.970Z,24.80
2018-12-26T04:21:06.943Z,25.20
2018-12-26T04:22:06.922Z,24.90
2018-12-26T04:23:06.889Z,25.80
2018-12-26T04:24:06.874Z,25.00
2018-12-26T04:25:06.838Z,26.20
2018-12-26T04:26:06.812Z,25.20
2018-12-26T04:27:15.334Z,25.10
2018-12-26T04:28:06.768Z,23.50
2018-12-26T04:29:06.732Z,23.90
2018-12-26T04:30:06.711Z,23.70
2018-12-26T04:31:06.691Z,24.30
2018-12-26T04:32:06.654Z,24.70
2018-12-26T04:33:06.630Z,24.80
2018-12-26T04:34:06.602Z,25.30
2018-12-26T04:35:06.574Z,23.50
2018-12-26T04:36:06.548Z,25.20
2018-12-26T04:37:06.528Z,25.40
2018-12-26T04:38:06.500Z,25.20
2018-12-26T04:39:06.470Z,25.60
2018-12-26T04:40:06.448Z,24.60
2018-12-26T04:41:06.418Z,24.40
2018-12-26T04:42:06.394Z,24.70
2018-12-26T04:43:06.367Z,24.60
2018-12-26T04:44:06.339Z,24.80
2018-12-26T04:45:06.314Z,25.20
2018-12-26T04:46:06.286Z,24.60
2018-12-26T04:47:06.260Z,24.70
2018-12-26T04:48:06.233Z,25.60
2018-12-26T04:49:06.411Z,24.20
2018-12-26T04:50:06.184Z,24.00
2018-12-26T04:51:06.155Z,25.20
2018-12-26T04:52:06.129Z,25.70
2018-12-26T04:53:06.113Z,25.80
2018-12-26T04:54:06.184Z,26.70
2018-12-26T04:55:06.051Z,25.50
2018-12-26T04:56:06.025Z,25.70
2018-12-26T04:57:06.001Z,25.80
2018-12-26T04:58:05.973Z,25.20
2018-12-26T04:59:05.948Z,25.00
2018-12-26T05:00:05.930Z,24.10
2018-12-26T05:01:05.897Z,25.60
2018-12-26T05:02:05.870Z,25.10
2018-12-26T05:03:05.843Z,24.50
2018-12-26T05:04:05.817Z,24.50
2018-12-26T05:05:05.790Z,26.10
2018-12-26T05:06:05.773Z,24.30
2018-12-26T05:07:05.739Z,25.30
2018-12-26T05:08:05.712Z,24.50
2018-12-26T05:09:05.687Z,24.60
2018-12-26T05:10:05.712Z,24.40
2018-12-26T05:11:05.652Z,25.40
2018-12-26T05:12:05.763Z,25.00
2018-12-26T05:13:05.581Z,25.10
2018-12-26T05:14:05.555Z,24.90
2018-12-26T05:15:05.530Z,25.10
2018-12-26T05:16:05.510Z,24.30
2018-12-26T05:17:05.476Z,25.60
2018-12-26T05:18:05.457Z,25.70
2018-12-26T05:19:05.426Z,25.40
2018-12-26T05:20:05.405Z,25.60
2018-12-26T05:21:05.376Z,25.80
2018-12-26T05:22:05.345Z,24.80
2018-12-26T05:23:05.321Z,26.20
2018-12-26T05:24:05.301Z,24.70
2018-12-26T05:25:05.285Z,24.50
2018-12-26T05:26:05.241Z,26.20
2018-12-26T05:27:05.218Z,26.70
2018-12-26T05:28:05.189Z,25.00
2018-12-26T05:29:05.171Z,26.20
2018-12-26T05:30:05.139Z,25.40
2018-12-26T05:31:06.153Z,26.00
2018-12-26T05:32:05.084Z,25.90
2018-12-26T05:33:05.058Z,26.90
2018-12-26T05:34:05.035Z,26.90
2018-12-26T05:35:05.014Z,28.20
2018-12-26T05:36:04.979Z,26.00
2018-12-26T05:37:04.953Z,27.20
2018-12-26T05:38:04.928Z,28.00
2018-12-26T05:39:04.902Z,26.60
2018-12-26T05:40:04.889Z,28.20
2018-12-26T05:41:04.851Z,27.40
2018-12-26T05:42:04.822Z,26.80
2018-12-26T05:43:04.796Z,27.70
2018-12-26T05:44:04.771Z,27.60
2018-12-26T05:45:04.751Z,27.90
2018-12-26T05:46:04.719Z,28.10
2018-12-26T05:47:04.898Z,28.20
2018-12-26T05:48:04.667Z,28.20
2018-12-26T05:49:04.640Z,26.10
2018-12-26T05:50:04.613Z,25.90
2018-12-26T05:51:04.589Z,29.20
2018-12-26T05:52:04.563Z,28.00
2018-12-26T05:53:04.537Z,28.30
2018-12-26T05:54:04.511Z,27.20
2018-12-26T05:55:04.684Z,27.50
2018-12-26T05:57:04.431Z,28.20
2018-12-26T05:58:04.405Z,27.10
2018-12-26T05:59:04.377Z,28.80
2018-12-26T06:00:04.352Z,28.80
2018-12-26T06:01:04.327Z,27.30
2018-12-26T06:02:04.301Z,28.90
2018-12-26T06:03:04.275Z,29.30
2018-12-26T06:04:04.247Z,29.40
2018-12-26T06:05:04.222Z,29.00
2018-12-26T06:06:04.195Z,29.80
2018-12-26T06:07:04.169Z,29.80
2018-12-26T06:08:04.142Z,28.50
2018-12-26T06:09:04.116Z,29.70
2018-12-26T06:10:04.092Z,28.90
2018-12-26T06:11:04.063Z,29.30
2018-12-26T06:12:04.038Z,29.80
2018-12-26T06:13:04.012Z,27.50
2018-12-26T06:14:03.993Z,29.20
2018-12-26T06:15:03.959Z,29.40
2018-12-26T06:16:03.933Z,28.30
2018-12-26T06:17:03.905Z,29.00
2018-12-26T06:18:03.880Z,29.90
2018-12-26T06:19:03.853Z,28.80
2018-12-26T06:20:03.827Z,29.10
2018-12-26T06:21:03.805Z,28.90
2018-12-26T06:22:03.876Z,29.90
2018-12-26T06:23:03.953Z,29.30
2018-12-26T06:24:03.723Z,28.80
2018-12-26T06:25:03.703Z,29.50
2018-12-26T06:26:03.672Z,30.40
2018-12-26T06:27:03.643Z,29.40
2018-12-26T06:28:03.617Z,29.20
2018-12-26T06:29:03.595Z,28.60
2018-12-26T06:30:03.572Z,29.00
2018-12-26T06:31:03.539Z,28.90
2018-12-26T06:32:03.515Z,29.70
2018-12-26T06:33:03.489Z,29.40
2018-12-26T06:34:03.462Z,30.60
2018-12-26T06:35:03.437Z,28.80
2018-12-26T06:36:03.409Z,30.00
2018-12-26T06:37:03.388Z,29.80
2018-12-26T06:38:03.357Z,29.40
2018-12-26T06:39:03.331Z,30.00
2018-12-26T06:40:03.305Z,29.80
2018-12-26T06:41:03.278Z,28.70
2018-12-26T06:42:03.252Z,29.00
2018-12-26T06:43:03.226Z,28.50
2018-12-26T06:44:03.203Z,29.30
2018-12-26T06:45:03.175Z,28.80
2018-12-26T06:46:03.147Z,28.30
2018-12-26T06:47:04.174Z,29.30
2018-12-26T06:48:03.104Z,29.10
2018-12-26T06:49:03.072Z,29.40
2018-12-26T06:50:03.145Z,28.80
2018-12-26T06:51:03.018Z,28.60
2018-12-26T06:52:02.991Z,30.20
2018-12-26T06:53:02.965Z,30.60
2018-12-26T06:54:02.939Z,29.40
2018-12-26T06:55:02.916Z,30.00
2018-12-26T06:56:02.888Z,29.70
2018-12-26T06:57:02.867Z,29.60
2018-12-26T06:58:02.835Z,29.20
2018-12-26T07:00:02.782Z,29.70
2018-12-26T07:01:02.756Z,30.20
2018-12-26T07:02:02.733Z,30.30
2018-12-26T07:03:02.708Z,30.90
2018-12-26T07:04:02.677Z,30.30
2018-12-26T07:05:02.652Z,30.70
2018-12-26T07:06:02.626Z,29.50
2018-12-26T07:07:02.599Z,31.00
2018-12-26T07:08:02.574Z,28.30
2018-12-26T07:09:02.548Z,30.70
2018-12-26T07:10:02.520Z,31.10
2018-12-26T07:11:02.497Z,30.50
2018-12-26T07:12:02.469Z,29.10
2018-12-26T07:13:02.448Z,29.20
2018-12-26T07:14:02.416Z,28.50
2018-12-26T07:15:02.389Z,29.80
2018-12-26T07:16:02.370Z,29.40
2018-12-26T07:17:02.338Z,29.20
2018-12-26T07:18:02.315Z,30.70
2018-12-26T07:19:02.285Z,30.20
2018-12-26T07:20:02.262Z,31.70
2018-12-26T07:21:02.235Z,30.80
2018-12-26T07:22:02.207Z,30.90
2018-12-26T07:23:02.181Z,29.90
2018-12-26T07:24:02.154Z,31.10
2018-12-26T07:25:02.137Z,30.30
2018-12-26T07:26:02.101Z,30.20
2018-12-26T07:27:02.075Z,31.40
2018-12-26T07:28:08.894Z,32.10
2018-12-26T07:29:02.028Z,30.70
2018-12-26T07:30:02.003Z,30.60
2018-12-26T07:31:01.974Z,31.30
2018-12-26T07:32:01.949Z,29.50
2018-12-26T07:33:01.921Z,30.00
2018-12-26T07:34:03.373Z,30.90
2018-12-26T07:35:01.867Z,31.10
2018-12-26T07:37:01.812Z,30.40
2018-12-26T07:38:01.789Z,29.70
2018-12-26T07:39:01.760Z,28.70
2018-12-26T07:40:01.736Z,29.90
2018-12-26T07:41:01.706Z,29.80
2018-12-26T07:42:01.683Z,29.50
2018-12-26T07:43:01.654Z,29.90
2018-12-26T07:44:01.637Z,30.10
2018-12-26T07:45:01.607Z,30.20
2018-12-26T07:46:01.582Z,29.70
2018-12-26T07:47:01.554Z,32.20
2018-12-26T07:48:01.530Z,31.30
2018-12-26T07:49:01.495Z,29.70
2018-12-26T07:50:01.470Z,30.60
2018-12-26T07:51:01.450Z,31.40
2018-12-26T07:52:01.418Z,31.30
2018-12-26T07:53:01.395Z,31.50
2018-12-26T07:54:01.365Z,33.00
2018-12-26T07:55:01.338Z,32.30
2018-12-26T07:56:01.312Z,33.50
2018-12-26T07:57:01.286Z,33.00
2018-12-26T07:58:01.260Z,31.70
2018-12-26T07:59:01.232Z,33.20
2018-12-26T08:00:01.218Z,32.50
2018-12-26T08:01:03.021Z,33.30
2018-12-26T08:02:01.159Z,33.10
2018-12-26T08:03:01.135Z,33.10
2018-12-26T08:04:01.102Z,34.80
2018-12-26T08:05:01.076Z,33.80
2018-12-26T08:06:01.048Z,33.60
2018-12-26T08:07:01.022Z,33.80
2018-12-26T08:08:00.996Z,34.50
2018-12-26T08:09:00.973Z,33.40
2018-12-26T08:10:00.945Z,32.80
2018-12-26T08:11:00.917Z,33.00
2018-12-26T08:12:00.906Z,32.90
2018-12-26T08:13:00.868Z,32.50
2018-12-26T08:14:00.841Z,32.90
2018-12-26T08:15:00.812Z,33.70
2018-12-26T08:16:00.785Z,33.70
2018-12-26T08:17:00.758Z,33.70
2018-12-26T08:18:00.732Z,33.70
2018-12-26T08:19:00.705Z,33.90
2018-12-26T08:20:00.809Z,33.30
2018-12-26T08:21:00.659Z,33.60
2018-12-26T08:22:00.626Z,32.80
2018-12-26T08:23:00.601Z,34.40
2018-12-26T08:24:00.576Z,33.00
2018-12-26T08:25:00.556Z,33.60
2018-12-26T08:26:00.524Z,34.00
2018-12-26T08:27:00.496Z,32.50
2018-12-26T08:28:00.470Z,33.80
2018-12-26T08:29:00.444Z,33.00
2018-12-26T08:30:00.418Z,33.80
2018-12-26T08:31:00.392Z,32.80
2018-12-26T08:32:00.365Z,33.00
2018-12-26T08:33:01.387Z,32.20
2018-12-26T08:34:00.317Z,32.50
2018-12-26T08:35:00.286Z,33.70
2018-12-26T08:36:00.261Z,34.20
2018-12-26T08:37:00.235Z,33.60
2018-12-26T08:38:00.219Z,33.60
2018-12-26T08:39:00.182Z,33.10
2018-12-26T08:40:00.167Z,33.10
2018-12-26T08:41:00.130Z,32.70
2018-12-26T08:42:00.105Z,35.30
2018-12-26T08:43:00.080Z,32.40
2018-12-26T08:44:00.050Z,34.00
2018-12-26T08:45:00.027Z,33.60
2018-12-26T08:45:59.999Z,33.90
2018-12-26T08:46:59.974Z,33.30
2018-12-26T08:47:59.948Z,33.70
2018-12-26T08:48:59.921Z,34.40
2018-12-26T08:49:59.904Z,34.60
2018-12-26T08:50:59.868Z,35.80
2018-12-26T08:51:59.845Z,35.10
2018-12-26T08:52:59.826Z,32.90
2018-12-26T08:53:59.792Z,35.40
2018-12-26T08:54:59.766Z,34.30
2018-12-26T08:55:59.746Z,32.60
2018-12-26T08:56:59.717Z,34.50
2018-12-26T08:57:59.692Z,34.80
2018-12-26T08:58:59.666Z,33.10
2018-12-26T08:59:59.635Z,34.60
2018-12-26T09:00:59.608Z,33.20
2018-12-26T09:01:59.585Z,33.40
2018-12-26T09:02:59.556Z,33.00
2018-12-26T09:03:59.531Z,34.10
2018-12-26T09:04:59.503Z,32.90
2018-12-26T09:05:59.479Z,35.10
2018-12-26T09:06:59.455Z,35.60
2018-12-26T09:07:59.427Z,35.40
2018-12-26T09:08:59.595Z,34.00
2018-12-26T09:09:59.376Z,35.30
2018-12-26T09:10:59.349Z,35.20
2018-12-26T09:11:59.430Z,33.60
2018-12-26T09:12:59.296Z,35.60
2018-12-26T09:13:59.270Z,36.50
2018-12-26T09:14:59.245Z,34.80
2018-12-26T09:15:59.217Z,35.70
2018-12-26T09:16:59.199Z,35.80
2018-12-26T09:17:59.170Z,33.80
2018-12-26T09:18:59.139Z,34.90
2018-12-26T09:19:59.114Z,35.30
2018-12-26T09:20:59.095Z,35.10
2018-12-26T09:21:59.073Z,36.00
2018-12-26T09:22:59.036Z,36.00
2018-12-26T09:23:59.018Z,34.90
2018-12-26T09:24:58.989Z,35.10
2018-12-26T09:25:58.958Z,34.90
2018-12-26T09:26:58.934Z,34.40
2018-12-26T09:27:58.905Z,34.90
2018-12-26T09:28:58.882Z,35.10
2018-12-26T09:29:58.858Z,34.20
2018-12-26T09:30:58.830Z,33.90
2018-12-26T09:31:58.812Z,35.60
2018-12-26T09:32:58.777Z,36.10
2018-12-26T09:33:58.751Z,35.10
2018-12-26T09:34:58.727Z,34.10
2018-12-26T09:35:58.707Z,33.40
2018-12-26T09:36:58.697Z,35.00
2018-12-26T09:37:58.654Z,36.30
2018-12-26T09:38:58.621Z,35.20
2018-12-26T09:39:58.597Z,36.00
2018-12-26T09:40:58.569Z,34.90
2018-12-26T09:41:58.550Z,33.50
2018-12-26T09:42:58.516Z,36.10
2018-12-26T09:43:58.492Z,35.80
2018-12-26T09:44:58.467Z,36.30
2018-12-26T09:45:58.440Z,36.10
2018-12-26T09:46:58.414Z,35.70
2018-12-26T09:47:59.430Z,36.10
2018-12-26T09:48:58.367Z,35.80
2018-12-26T09:49:58.337Z,35.60
2018-12-26T09:50:58.310Z,34.60
2018-12-26T09:51:58.289Z,36.60
2018-12-26T09:52:58.258Z,35.70
2018-12-26T09:53:58.233Z,34.60
2018-12-26T09:54:58.205Z,36.70
2018-12-26T09:55:58.184Z,35.40
2018-12-26T09:56:58.304Z,35.90
2018-12-26T09:57:58.137Z,38.50
2018-12-26T09:58:58.102Z,35.50
2018-12-26T09:59:58.078Z,35.70
2018-12-26T10:00:58.066Z,35.20
2018-12-26T10:01:58.030Z,35.30
2018-12-26T10:02:58.000Z,34.60
2018-12-26T10:03:57.974Z,35.30
2018-12-26T10:04:57.948Z,36.30
2018-12-26T10:05:57.922Z,35.90
2018-12-26T10:06:57.908Z,34.60
2018-12-26T10:07:57.871Z,37.00
2018-12-26T10:08:57.852Z,35.20
2018-12-26T10:09:57.819Z,35.90
2018-12-26T10:11:57.767Z,36.60
2018-12-26T10:12:57.740Z,35.30
2018-12-26T10:13:57.717Z,36.60
2018-12-26T10:14:57.697Z,37.30
2018-12-26T10:15:57.663Z,36.00
2018-12-26T10:16:57.646Z,36.40
2018-12-26T10:17:57.616Z,36.50
2018-12-26T10:18:57.585Z,36.90
2018-12-26T10:19:57.569Z,34.90
2018-12-26T10:20:57.537Z,35.40
2018-12-26T10:21:57.518Z,36.70
2018-12-26T10:22:57.484Z,36.70
2018-12-26T10:23:57.458Z,37.40
2018-12-26T10:24:57.444Z,36.10
2018-12-26T10:25:57.409Z,37.30
2018-12-26T10:26:57.382Z,36.40
2018-12-26T10:27:57.355Z,37.50
2018-12-26T10:29:01.042Z,37.80
2018-12-26T10:29:57.308Z,37.40
2018-12-26T10:30:57.276Z,36.30
2018-12-26T10:31:57.252Z,38.90
2018-12-26T10:32:57.225Z,37.70
2018-12-26T10:33:57.199Z,38.60
2018-12-26T10:34:57.174Z,38.10
2018-12-26T10:35:57.148Z,37.60
2018-12-26T10:36:57.122Z,38.90
2018-12-26T10:37:57.096Z,38.20
2018-12-26T10:38:57.071Z,38.70
2018-12-26T10:39:57.045Z,37.80
2018-12-26T10:40:57.017Z,38.90
2018-12-26T10:41:56.994Z,38.80
2018-12-26T10:42:56.966Z,38.90
2018-12-26T10:43:56.945Z,37.00
2018-12-26T10:44:56.918Z,37.10
2018-12-26T10:45:56.890Z,37.70
2018-12-26T10:46:56.864Z,37.40
2018-12-26T10:47:56.840Z,39.20
2018-12-26T10:48:56.811Z,39.20
2018-12-26T10:49:56.786Z,39.20
2018-12-26T10:50:56.761Z,39.70
2018-12-26T10:51:56.734Z,39.50
2018-12-26T10:52:56.711Z,39.30
2018-12-26T10:53:56.686Z,38.10
2018-12-26T10:54:56.656Z,40.80
2018-12-26T10:55:56.633Z,40.40
2018-12-26T10:56:56.612Z,40.10
2018-12-26T10:57:56.581Z,37.80
2018-12-26T10:58:56.553Z,38.90
2018-12-26T10:59:56.529Z,39.20
2018-12-26T11:00:56.516Z,38.30
2018-12-26T11:01:56.477Z,37.00
2018-12-26T11:02:56.451Z,38.10
2018-12-26T11:03:56.435Z,37.70
2018-12-26T11:04:56.440Z,39.20
2018-12-26T11:05:56.376Z,38.20
2018-12-26T11:06:56.356Z,39.60
2018-12-26T11:07:56.323Z,39.10
2018-12-26T11:08:56.297Z,38.20
2018-12-26T11:09:56.272Z,38.00
2018-12-26T11:10:56.245Z,37.00
2018-12-26T11:11:56.222Z,36.20
2018-12-26T11:12:56.201Z,36.20
2018-12-26T11:13:56.169Z,36.70
2018-12-26T11:14:56.141Z,37.20
2018-12-26T11:15:56.127Z,35.20
2018-12-26T11:16:56.090Z,37.20
2018-12-26T11:17:56.065Z,37.30
2018-12-26T11:18:56.039Z,37.50
2018-12-26T11:19:56.024Z,36.70
2018-12-26T11:20:55.995Z,32.80
2018-12-26T11:21:55.973Z,33.80
2018-12-26T11:22:55.936Z,32.80
2018-12-26T11:23:55.910Z,33.40
2018-12-26T11:24:55.890Z,32.70
2018-12-26T11:25:55.860Z,31.50
2018-12-26T11:26:55.833Z,32.50
2018-12-26T11:27:55.808Z,31.80
2018-12-26T11:28:55.781Z,31.70
2018-12-26T11:29:55.765Z,30.70
2018-12-26T11:30:55.729Z,30.10
2018-12-26T11:31:55.706Z,29.40
2018-12-26T11:32:55.771Z,30.20
2018-12-26T11:33:55.654Z,29.30
2018-12-26T11:34:55.626Z,32.40
2018-12-26T11:35:55.604Z,31.10
2018-12-26T11:36:55.580Z,32.20
2018-12-26T11:37:55.551Z,32.00
2018-12-26T11:38:55.527Z,31.40
2018-12-26T11:39:55.501Z,30.80
2018-12-26T11:40:55.477Z,30.80
2018-12-26T11:41:55.448Z,31.40
2018-12-26T11:42:55.431Z,30.80
2018-12-26T11:43:55.397Z,31.20
2018-12-26T11:44:55.371Z,31.30
2018-12-26T11:45:55.347Z,32.00
2018-12-26T11:46:56.966Z,33.00
2018-12-26T11:47:55.301Z,33.20
2018-12-26T11:48:55.269Z,32.30
2018-12-26T11:49:55.246Z,33.00
2018-12-26T11:50:55.217Z,31.50
2018-12-26T11:51:55.193Z,32.70
2018-12-26T11:52:55.166Z,32.60
2018-12-26T11:53:55.148Z,32.20
2018-12-26T11:54:55.139Z,31.70
2018-12-26T11:55:55.093Z,31.60
2018-12-26T11:56:55.065Z,33.10
2018-12-26T11:57:55.040Z,32.30
2018-12-26T11:58:55.013Z,33.40
2018-12-26T11:59:54.991Z,32.90
2018-12-26T12:00:54.971Z,32.90
2018-12-26T12:01:54.947Z,32.70
2018-12-26T12:02:54.916Z,33.10
2018-12-26T12:03:54.884Z,33.20
2018-12-26T12:04:54.860Z,32.80
2018-12-26T12:05:54.836Z,33.50
2018-12-26T12:06:54.809Z,33.50
2018-12-26T12:07:54.783Z,32.70
2018-12-26T12:08:54.756Z,32.60
2018-12-26T12:09:54.734Z,33.20
2018-12-26T12:10:54.705Z,33.10
2018-12-26T12:11:54.681Z,33.60
2018-12-26T12:12:54.653Z,31.50
2018-12-26T12:13:54.633Z,32.60
2018-12-26T12:14:54.602Z,33.50
2018-12-26T12:15:54.585Z,30.00
2018-12-26T12:16:54.593Z,30.50
2018-12-26T12:17:54.544Z,29.90
2018-12-26T12:18:54.656Z,32.20
2018-12-26T12:19:54.480Z,32.50
2018-12-26T12:20:54.459Z,32.90
2018-12-26T12:21:54.430Z,32.50
2018-12-26T12:22:54.400Z,31.50
2018-12-26T12:23:54.387Z,32.80
2018-12-26T12:24:54.350Z,32.20
2018-12-26T12:25:54.324Z,33.90
2018-12-26T12:26:54.299Z,34.60
2018-12-26T12:27:54.281Z,33.10
2018-12-26T12:28:54.248Z,33.20
2018-12-26T12:29:54.224Z,32.60
2018-12-26T12:30:54.196Z,32.20
2018-12-26T12:31:54.184Z,34.40
2018-12-26T12:32:54.153Z,34.00
2018-12-26T12:33:54.121Z,33.60
2018-12-26T12:34:54.100Z,34.40
2018-12-26T12:35:54.071Z,34.70
2018-12-26T12:36:54.044Z,35.00
2018-12-26T12:37:54.023Z,34.20
2018-12-26T12:38:54.003Z,34.70
2018-12-26T12:39:53.969Z,34.90
2018-12-26T12:40:53.942Z,34.70
2018-12-26T12:41:53.923Z,35.30
2018-12-26T12:42:53.899Z,35.70
2018-12-26T12:43:53.867Z,36.10
2018-12-26T12:44:53.845Z,36.90
2018-12-26T12:45:53.816Z,35.70
2018-12-26T12:46:53.790Z,35.60
2018-12-26T12:47:53.764Z,36.10
2018-12-26T12:48:53.739Z,36.20
2018-12-26T12:49:53.719Z,37.30
2018-12-26T12:50:53.688Z,36.80
2018-12-26T12:51:53.663Z,36.50
2018-12-26T12:52:53.637Z,37.20
2018-12-26T12:53:53.611Z,34.50
2018-12-26T12:54:53.586Z,37.90
2018-12-26T12:55:53.565Z,38.00